sensor_id;sensor_type;location;lat;lon;timestamp;pressure;altitude;pressure_sealevel;temperature;humidity
829;BME280;396;52.558;13.188;2022-09-21T00:01:44;101899.47;;;6.58;100.00
829;BME280;396;52.558;13.188;2022-09-21T00:04:10;101903.31;;;6.62;100.00
829;BME280;396;52.558;13.188;2022-09-21T00:06:37;101904.06;;;6.74;100.00
829;BME280;396;52.558;13.188;2022-09-21T00:09:05;101908.22;;;6.65;100.00
829;BME280;396;52.558;13.188;2022-09-21T00:11:34;101902.09;;;6.70;100.00
829;BME280;396;52.558;13.188;2022-09-21T00:14:04;101911.16;;;6.80;100.00
829;BME280;396;52.558;13.188;2022-09-21T00:16:31;101909.06;;;6.82;100.00
829;BME280;396;52.558;13.188;2022-09-21T00:18:58;101907.66;;;6.80;100.00
829;BME280;396;52.558;13.188;2022-09-21T00:21:25;101910.59;;;6.78;100.00
829;BME280;396;52.558;13.188;2022-09-21T00:23:52;101912.88;;;6.70;100.00
829;BME280;396;52.558;13.188;2022-09-21T00:26:22;101914.41;;;6.66;100.00
829;BME280;396;52.558;13.188;2022-09-21T00:28:51;101911.47;;;6.67;100.00
829;BME280;396;52.558;13.188;2022-09-21T00:31:19;101903.94;;;6.52;100.00
829;BME280;396;52.558;13.188;2022-09-21T00:33:46;101908.47;;;6.35;100.00
829;BME280;396;52.558;13.188;2022-09-21T00:36:15;101910.81;;;6.31;100.00
829;BME280;396;52.558;13.188;2022-09-21T00:38:42;101914.47;;;6.25;100.00
829;BME280;396;52.558;13.188;2022-09-21T00:41:10;101908.66;;;6.17;100.00
829;BME280;396;52.558;13.188;2022-09-21T00:43:43;101912.16;;;6.17;100.00
829;BME280;396;52.558;13.188;2022-09-21T00:46:14;101906.78;;;6.17;100.00
829;BME280;396;52.558;13.188;2022-09-21T00:48:43;101912.50;;;6.21;100.00
829;BME280;396;52.558;13.188;2022-09-21T00:51:11;101918.31;;;6.29;100.00
829;BME280;396;52.558;13.188;2022-09-21T00:53:38;101916.91;;;6.27;100.00
829;BME280;396;52.558;13.188;2022-09-21T00:56:05;101906.34;;;6.37;100.00
829;BME280;396;52.558;13.188;2022-09-21T00:58:40;101915.81;;;6.40;100.00
829;BME280;396;52.558;13.188;2022-09-21T01:01:08;101911.41;;;6.34;100.00
829;BME280;396;52.558;13.188;2022-09-21T01:03:38;101916.19;;;6.31;100.00
829;BME280;396;52.558;13.188;2022-09-21T01:06:05;101915.63;;;6.29;100.00
829;BME280;396;52.558;13.188;2022-09-21T01:08:31;101922.16;;;6.34;100.00
829;BME280;396;52.558;13.188;2022-09-21T01:11:22;101916.88;;;6.39;100.00
829;BME280;396;52.558;13.188;2022-09-21T01:14:08;101915.00;;;6.39;100.00
829;BME280;396;52.558;13.188;2022-09-21T01:16:44;101913.03;;;6.35;100.00
829;BME280;396;52.558;13.188;2022-09-21T01:19:26;101920.50;;;6.32;100.00
829;BME280;396;52.558;13.188;2022-09-21T01:22:04;101919.66;;;6.44;100.00
829;BME280;396;52.558;13.188;2022-09-21T01:24:48;101921.72;;;6.25;100.00
829;BME280;396;52.558;13.188;2022-09-21T01:27:37;101930.72;;;6.19;100.00
829;BME280;396;52.558;13.188;2022-09-21T01:30:10;101925.97;;;6.09;100.00
829;BME280;396;52.558;13.188;2022-09-21T01:32:40;101927.56;;;6.22;100.00
829;BME280;396;52.558;13.188;2022-09-21T01:35:09;101930.53;;;5.97;100.00
829;BME280;396;52.558;13.188;2022-09-21T01:37:40;101926.00;;;5.86;100.00
829;BME280;396;52.558;13.188;2022-09-21T01:40:12;101935.81;;;6.03;100.00
829;BME280;396;52.558;13.188;2022-09-21T01:42:42;101936.53;;;5.99;100.00
829;BME280;396;52.558;13.188;2022-09-21T01:45:14;101929.97;;;5.95;100.00
829;BME280;396;52.558;13.188;2022-09-21T01:47:45;101930.78;;;5.95;100.00
829;BME280;396;52.558;13.188;2022-09-21T01:50:16;101930.44;;;6.03;100.00
829;BME280;396;52.558;13.188;2022-09-21T01:52:46;101934.50;;;6.06;100.00
829;BME280;396;52.558;13.188;2022-09-21T01:55:19;101928.09;;;6.07;100.00
829;BME280;396;52.558;13.188;2022-09-21T01:57:52;101934.13;;;6.14;100.00
829;BME280;396;52.558;13.188;2022-09-21T02:00:23;101933.94;;;6.04;100.00
829;BME280;396;52.558;13.188;2022-09-21T02:02:51;101931.59;;;5.96;100.00
829;BME280;396;52.558;13.188;2022-09-21T02:05:21;101929.13;;;6.06;100.00
829;BME280;396;52.558;13.188;2022-09-21T02:07:50;101933.91;;;6.16;100.00
829;BME280;396;52.558;13.188;2022-09-21T02:10:22;101939.78;;;6.01;100.00
829;BME280;396;52.558;13.188;2022-09-21T02:12:52;101930.88;;;6.12;100.00
829;BME280;396;52.558;13.188;2022-09-21T02:15:31;101925.78;;;5.99;100.00
829;BME280;396;52.558;13.188;2022-09-21T02:18:05;101938.88;;;5.95;100.00
829;BME280;396;52.558;13.188;2022-09-21T02:20:37;101938.72;;;5.90;100.00
829;BME280;396;52.558;13.188;2022-09-21T02:23:11;101939.19;;;5.87;100.00
829;BME280;396;52.558;13.188;2022-09-21T02:25:46;101941.41;;;5.78;100.00
829;BME280;396;52.558;13.188;2022-09-21T02:28:22;101943.19;;;5.73;100.00
829;BME280;396;52.558;13.188;2022-09-21T02:30:56;101936.03;;;5.78;100.00
829;BME280;396;52.558;13.188;2022-09-21T02:33:29;101940.59;;;5.66;100.00
829;BME280;396;52.558;13.188;2022-09-21T02:36:01;101938.88;;;5.60;100.00
829;BME280;396;52.558;13.188;2022-09-21T02:38:34;101949.28;;;5.68;100.00
829;BME280;396;52.558;13.188;2022-09-21T02:41:04;101947.63;;;5.67;100.00
829;BME280;396;52.558;13.188;2022-09-21T02:43:36;101950.78;;;5.76;100.00
829;BME280;396;52.558;13.188;2022-09-21T02:46:09;101958.00;;;5.75;100.00
829;BME280;396;52.558;13.188;2022-09-21T02:48:39;101955.09;;;5.77;100.00
829;BME280;396;52.558;13.188;2022-09-21T02:51:12;101948.91;;;5.76;100.00
829;BME280;396;52.558;13.188;2022-09-21T02:53:41;101951.94;;;5.68;100.00
829;BME280;396;52.558;13.188;2022-09-21T02:56:09;101957.09;;;5.81;100.00
829;BME280;396;52.558;13.188;2022-09-21T02:58:40;101951.13;;;5.68;100.00
829;BME280;396;52.558;13.188;2022-09-21T03:01:11;101956.63;;;5.73;100.00
829;BME280;396;52.558;13.188;2022-09-21T03:03:38;101952.78;;;5.69;100.00
829;BME280;396;52.558;13.188;2022-09-21T03:06:05;101964.22;;;5.76;100.00
829;BME280;396;52.558;13.188;2022-09-21T03:08:32;101960.47;;;5.65;100.00
829;BME280;396;52.558;13.188;2022-09-21T03:10:58;101952.63;;;5.75;100.00
829;BME280;396;52.558;13.188;2022-09-21T03:13:25;101958.50;;;5.72;100.00
829;BME280;396;52.558;13.188;2022-09-21T03:15:58;101958.50;;;5.72;100.00
829;BME280;396;52.558;13.188;2022-09-21T03:18:26;101962.34;;;5.53;100.00
829;BME280;396;52.558;13.188;2022-09-21T03:20:52;101965.16;;;5.46;100.00
829;BME280;396;52.558;13.188;2022-09-21T03:23:19;101967.72;;;5.41;100.00
829;BME280;396;52.558;13.188;2022-09-21T03:25:46;101961.75;;;5.51;100.00
829;BME280;396;52.558;13.188;2022-09-21T03:28:13;101962.47;;;5.58;100.00
829;BME280;396;52.558;13.188;2022-09-21T03:30:41;101972.66;;;5.68;100.00
829;BME280;396;52.558;13.188;2022-09-21T03:33:08;101961.19;;;5.61;100.00
829;BME280;396;52.558;13.188;2022-09-21T03:35:35;101968.66;;;5.59;100.00
829;BME280;396;52.558;13.188;2022-09-21T03:38:02;101968.66;;;5.59;100.00
829;BME280;396;52.558;13.188;2022-09-21T03:40:28;101970.53;;;5.58;100.00
829;BME280;396;52.558;13.188;2022-09-21T03:42:55;101973.47;;;5.45;100.00
829;BME280;396;52.558;13.188;2022-09-21T03:45:21;101974.50;;;5.55;100.00
829;BME280;396;52.558;13.188;2022-09-21T03:47:49;101983.03;;;5.64;100.00
829;BME280;396;52.558;13.188;2022-09-21T03:50:15;101969.69;;;5.57;100.00
829;BME280;396;52.558;13.188;2022-09-21T03:52:43;101979.28;;;5.42;100.00
829;BME280;396;52.558;13.188;2022-09-21T03:55:09;101973.19;;;5.35;100.00
829;BME280;396;52.558;13.188;2022-09-21T03:57:36;101968.84;;;5.22;100.00
829;BME280;396;52.558;13.188;2022-09-21T04:00:05;101971.31;;;5.23;100.00
829;BME280;396;52.558;13.188;2022-09-21T04:02:33;101973.16;;;5.11;100.00
829;BME280;396;52.558;13.188;2022-09-21T04:05:00;101980.84;;;5.07;100.00
829;BME280;396;52.558;13.188;2022-09-21T04:07:29;101968.97;;;5.15;100.00
829;BME280;396;52.558;13.188;2022-09-21T04:09:57;101969.41;;;5.12;100.00
829;BME280;396;52.558;13.188;2022-09-21T04:12:24;101977.25;;;5.14;100.00
829;BME280;396;52.558;13.188;2022-09-21T04:14:50;101972.94;;;5.24;100.00
829;BME280;396;52.558;13.188;2022-09-21T04:17:17;101983.94;;;5.35;100.00
829;BME280;396;52.558;13.188;2022-09-21T04:19:43;101990.94;;;5.36;100.00
829;BME280;396;52.558;13.188;2022-09-21T04:22:10;101992.22;;;5.33;100.00
829;BME280;396;52.558;13.188;2022-09-21T04:24:37;101989.78;;;5.31;100.00
829;BME280;396;52.558;13.188;2022-09-21T04:27:06;101989.91;;;5.37;100.00
829;BME280;396;52.558;13.188;2022-09-21T04:29:33;101987.59;;;5.40;100.00
829;BME280;396;52.558;13.188;2022-09-21T04:31:59;101986.41;;;5.48;100.00
829;BME280;396;52.558;13.188;2022-09-21T04:34:26;101987.81;;;5.50;100.00
829;BME280;396;52.558;13.188;2022-09-21T04:36:52;101987.34;;;5.42;100.00
829;BME280;396;52.558;13.188;2022-09-21T04:39:19;101987.31;;;5.30;100.00
829;BME280;396;52.558;13.188;2022-09-21T04:41:45;101985.94;;;5.27;100.00
829;BME280;396;52.558;13.188;2022-09-21T04:44:13;101984.16;;;5.21;100.00
829;BME280;396;52.558;13.188;2022-09-21T04:46:40;101981.22;;;5.11;100.00
829;BME280;396;52.558;13.188;2022-09-21T04:49:07;101981.78;;;5.13;100.00
829;BME280;396;52.558;13.188;2022-09-21T04:51:35;101991.13;;;5.11;100.00
829;BME280;396;52.558;13.188;2022-09-21T04:54:01;101984.84;;;5.17;100.00
829;BME280;396;52.558;13.188;2022-09-21T04:56:28;101986.00;;;5.09;100.00
829;BME280;396;52.558;13.188;2022-09-21T04:58:55;101990.03;;;5.00;100.00
829;BME280;396;52.558;13.188;2022-09-21T05:01:22;101991.78;;;4.94;100.00
829;BME280;396;52.558;13.188;2022-09-21T05:03:49;101997.41;;;5.04;100.00
829;BME280;396;52.558;13.188;2022-09-21T05:06:15;101999.06;;;5.05;100.00
829;BME280;396;52.558;13.188;2022-09-21T05:08:42;101996.41;;;5.17;100.00
829;BME280;396;52.558;13.188;2022-09-21T05:11:40;101999.94;;;5.29;100.00
829;BME280;396;52.558;13.188;2022-09-21T05:14:07;102009.69;;;5.12;100.00
829;BME280;396;52.558;13.188;2022-09-21T05:16:35;102009.13;;;5.10;100.00
829;BME280;396;52.558;13.188;2022-09-21T05:19:02;102018.94;;;5.16;100.00
829;BME280;396;52.558;13.188;2022-09-21T05:21:28;102018.50;;;5.19;100.00
829;BME280;396;52.558;13.188;2022-09-21T05:23:56;102018.75;;;5.29;100.00
829;BME280;396;52.558;13.188;2022-09-21T05:26:23;102022.16;;;5.37;100.00
829;BME280;396;52.558;13.188;2022-09-21T05:28:50;102023.22;;;5.47;100.00
829;BME280;396;52.558;13.188;2022-09-21T05:31:29;102033.94;;;5.36;100.00
829;BME280;396;52.558;13.188;2022-09-21T05:34:03;102033.16;;;5.47;100.00
829;BME280;396;52.558;13.188;2022-09-21T05:36:40;102021.59;;;5.46;100.00
829;BME280;396;52.558;13.188;2022-09-21T05:39:08;102034.81;;;5.60;100.00
829;BME280;396;52.558;13.188;2022-09-21T05:41:36;102032.38;;;5.58;100.00
829;BME280;396;52.558;13.188;2022-09-21T05:44:03;102032.09;;;5.48;100.00
829;BME280;396;52.558;13.188;2022-09-21T05:46:35;102028.63;;;5.59;100.00
829;BME280;396;52.558;13.188;2022-09-21T05:49:12;102040.41;;;5.70;100.00
829;BME280;396;52.558;13.188;2022-09-21T05:51:47;102035.38;;;5.62;100.00
829;BME280;396;52.558;13.188;2022-09-21T05:54:21;102036.09;;;5.69;100.00
829;BME280;396;52.558;13.188;2022-09-21T05:56:55;102039.03;;;5.79;100.00
829;BME280;396;52.558;13.188;2022-09-21T05:59:39;102041.31;;;5.94;100.00
829;BME280;396;52.558;13.188;2022-09-21T06:02:18;102040.59;;;5.98;100.00
829;BME280;396;52.558;13.188;2022-09-21T06:04:51;102044.47;;;6.02;100.00
829;BME280;396;52.558;13.188;2022-09-21T06:07:19;102037.19;;;6.15;100.00
829;BME280;396;52.558;13.188;2022-09-21T06:09:45;102039.03;;;6.38;100.00
829;BME280;396;52.558;13.188;2022-09-21T06:12:12;102045.19;;;6.50;100.00
829;BME280;396;52.558;13.188;2022-09-21T06:14:38;102047.88;;;6.62;100.00
829;BME280;396;52.558;13.188;2022-09-21T06:17:04;102046.16;;;6.84;100.00
829;BME280;396;52.558;13.188;2022-09-21T06:19:31;102047.84;;;7.02;100.00
829;BME280;396;52.558;13.188;2022-09-21T06:21:59;102043.31;;;7.19;100.00
829;BME280;396;52.558;13.188;2022-09-21T06:24:25;102050.03;;;7.33;100.00
829;BME280;396;52.558;13.188;2022-09-21T06:26:52;102052.50;;;7.52;100.00
829;BME280;396;52.558;13.188;2022-09-21T06:29:18;102057.56;;;7.65;100.00
829;BME280;396;52.558;13.188;2022-09-21T06:31:48;102059.13;;;7.78;100.00
829;BME280;396;52.558;13.188;2022-09-21T06:34:14;102057.72;;;7.92;100.00
829;BME280;396;52.558;13.188;2022-09-21T06:36:40;102060.34;;;8.04;100.00
829;BME280;396;52.558;13.188;2022-09-21T06:39:08;102062.63;;;8.12;100.00
829;BME280;396;52.558;13.188;2022-09-21T06:41:35;102065.72;;;8.21;100.00
829;BME280;396;52.558;13.188;2022-09-21T06:44:01;102062.06;;;8.32;100.00
829;BME280;396;52.558;13.188;2022-09-21T06:46:28;102071.16;;;8.43;100.00
829;BME280;396;52.558;13.188;2022-09-21T06:48:54;102070.75;;;8.51;100.00
829;BME280;396;52.558;13.188;2022-09-21T06:51:21;102065.13;;;8.57;100.00
829;BME280;396;52.558;13.188;2022-09-21T06:53:48;102066.28;;;8.62;100.00
829;BME280;396;52.558;13.188;2022-09-21T06:56:15;102065.63;;;8.76;100.00
829;BME280;396;52.558;13.188;2022-09-21T06:58:42;102072.16;;;8.80;100.00
829;BME280;396;52.558;13.188;2022-09-21T07:01:10;102068.97;;;8.83;100.00
829;BME280;396;52.558;13.188;2022-09-21T07:03:38;102069.41;;;8.97;100.00
829;BME280;396;52.558;13.188;2022-09-21T07:06:05;102079.00;;;9.10;100.00
829;BME280;396;52.558;13.188;2022-09-21T07:08:33;102073.13;;;9.18;100.00
829;BME280;396;52.558;13.188;2022-09-21T07:11:00;102081.34;;;9.28;100.00
829;BME280;396;52.558;13.188;2022-09-21T07:13:28;102088.19;;;9.36;100.00
829;BME280;396;52.558;13.188;2022-09-21T07:15:55;102088.75;;;9.38;100.00
829;BME280;396;52.558;13.188;2022-09-21T07:18:21;102086.97;;;9.49;100.00
829;BME280;396;52.558;13.188;2022-09-21T07:20:48;102097.28;;;9.52;100.00
829;BME280;396;52.558;13.188;2022-09-21T07:23:16;102092.75;;;9.63;100.00
829;BME280;396;52.558;13.188;2022-09-21T07:25:43;102089.31;;;9.72;100.00
829;BME280;396;52.558;13.188;2022-09-21T07:28:10;102090.44;;;9.76;100.00
829;BME280;396;52.558;13.188;2022-09-21T07:30:40;102093.22;;;9.86;100.00
829;BME280;396;52.558;13.188;2022-09-21T07:33:07;102093.28;;;9.92;100.00
829;BME280;396;52.558;13.188;2022-09-21T07:35:34;102091.91;;;9.89;100.00
829;BME280;396;52.558;13.188;2022-09-21T07:38:02;102102.50;;;9.96;100.00
829;BME280;396;52.558;13.188;2022-09-21T07:40:29;102102.72;;;9.89;100.00
829;BME280;396;52.558;13.188;2022-09-21T07:42:56;102098.72;;;9.97;100.00
829;BME280;396;52.558;13.188;2022-09-21T07:45:23;102102.59;;;10.06;100.00
829;BME280;396;52.558;13.188;2022-09-21T07:47:51;102096.63;;;10.09;100.00
829;BME280;396;52.558;13.188;2022-09-21T07:50:18;102093.44;;;10.17;100.00
829;BME280;396;52.558;13.188;2022-09-21T07:52:45;102095.91;;;10.19;100.00
829;BME280;396;52.558;13.188;2022-09-21T07:55:12;102094.38;;;10.28;100.00
829;BME280;396;52.558;13.188;2022-09-21T07:57:38;102100.34;;;10.35;100.00
829;BME280;396;52.558;13.188;2022-09-21T08:00:22;102099.09;;;10.53;100.00
829;BME280;396;52.558;13.188;2022-09-21T08:02:50;102100.78;;;10.59;100.00
829;BME280;396;52.558;13.188;2022-09-21T08:05:16;102106.53;;;10.73;100.00
829;BME280;396;52.558;13.188;2022-09-21T08:07:43;102107.38;;;10.83;100.00
829;BME280;396;52.558;13.188;2022-09-21T08:10:10;102110.66;;;10.91;100.00
829;BME280;396;52.558;13.188;2022-09-21T08:12:37;102097.13;;;10.96;100.00
829;BME280;396;52.558;13.188;2022-09-21T08:15:04;102102.03;;;10.99;100.00
829;BME280;396;52.558;13.188;2022-09-21T08:17:32;102101.75;;;11.00;100.00
829;BME280;396;52.558;13.188;2022-09-21T08:20:00;102110.44;;;11.07;100.00
829;BME280;396;52.558;13.188;2022-09-21T08:22:26;102105.84;;;11.08;100.00
829;BME280;396;52.558;13.188;2022-09-21T08:24:53;102102.84;;;11.15;100.00
829;BME280;396;52.558;13.188;2022-09-21T08:27:20;102103.16;;;11.18;100.00
829;BME280;396;52.558;13.188;2022-09-21T08:29:46;102108.34;;;11.25;100.00
829;BME280;396;52.558;13.188;2022-09-21T08:32:12;102109.44;;;11.29;100.00
829;BME280;396;52.558;13.188;2022-09-21T08:34:39;102110.25;;;11.34;100.00
829;BME280;396;52.558;13.188;2022-09-21T08:37:07;102109.72;;;11.43;100.00
829;BME280;396;52.558;13.188;2022-09-21T08:39:33;102097.25;;;11.52;100.00
829;BME280;396;52.558;13.188;2022-09-21T08:42:13;102111.09;;;11.71;100.00
829;BME280;396;52.558;13.188;2022-09-21T08:44:50;102100.00;;;11.88;100.00
829;BME280;396;52.558;13.188;2022-09-21T08:47:32;102103.50;;;11.98;100.00
829;BME280;396;52.558;13.188;2022-09-21T08:50:03;102095.91;;;12.16;100.00
829;BME280;396;52.558;13.188;2022-09-21T08:52:32;102111.34;;;12.41;100.00
829;BME280;396;52.558;13.188;2022-09-21T08:55:00;102110.44;;;12.60;100.00
829;BME280;396;52.558;13.188;2022-09-21T08:57:29;102110.69;;;12.69;100.00
829;BME280;396;52.558;13.188;2022-09-21T08:59:57;102109.00;;;12.88;100.00
829;BME280;396;52.558;13.188;2022-09-21T09:02:37;102107.88;;;12.95;100.00
829;BME280;396;52.558;13.188;2022-09-21T09:05:18;102113.25;;;13.05;100.00
829;BME280;396;52.558;13.188;2022-09-21T09:08:01;102113.22;;;13.10;100.00
829;BME280;396;52.558;13.188;2022-09-21T09:10:35;102118.34;;;13.22;100.00
829;BME280;396;52.558;13.188;2022-09-21T09:13:15;102116.44;;;13.27;100.00
829;BME280;396;52.558;13.188;2022-09-21T09:15:51;102114.75;;;13.36;100.00
829;BME280;396;52.558;13.188;2022-09-21T09:18:26;102112.47;;;13.49;100.00
829;BME280;396;52.558;13.188;2022-09-21T09:20:56;102115.41;;;13.57;100.00
829;BME280;396;52.558;13.188;2022-09-21T09:23:28;102119.97;;;13.67;100.00
829;BME280;396;52.558;13.188;2022-09-21T09:26:01;102112.00;;;13.76;100.00
829;BME280;396;52.558;13.188;2022-09-21T09:28:33;102108.69;;;13.84;100.00
829;BME280;396;52.558;13.188;2022-09-21T09:31:05;102111.94;;;13.86;100.00
829;BME280;396;52.558;13.188;2022-09-21T09:33:43;102113.16;;;13.99;100.00
829;BME280;396;52.558;13.188;2022-09-21T09:36:13;102113.59;;;14.11;100.00
829;BME280;396;52.558;13.188;2022-09-21T09:38:44;102116.81;;;14.18;98.51
829;BME280;396;52.558;13.188;2022-09-21T09:41:29;102122.41;;;14.32;97.86
829;BME280;396;52.558;13.188;2022-09-21T09:44:13;102118.75;;;14.42;96.46
829;BME280;396;52.558;13.188;2022-09-21T09:46:52;102122.41;;;14.61;95.43
829;BME280;396;52.558;13.188;2022-09-21T09:49:30;102115.00;;;14.85;94.45
829;BME280;396;52.558;13.188;2022-09-21T09:51:58;102121.03;;;15.06;92.22
829;BME280;396;52.558;13.188;2022-09-21T09:54:28;102125.53;;;15.16;90.58
829;BME280;396;52.558;13.188;2022-09-21T09:56:58;102114.69;;;15.11;91.23
829;BME280;396;52.558;13.188;2022-09-21T09:59:31;102122.94;;;15.06;92.66
829;BME280;396;52.558;13.188;2022-09-21T10:02:03;102122.47;;;14.99;91.34
829;BME280;396;52.558;13.188;2022-09-21T10:04:30;102117.03;;;14.99;91.88
829;BME280;396;52.558;13.188;2022-09-21T10:06:58;102116.72;;;15.00;88.78
829;BME280;396;52.558;13.188;2022-09-21T10:09:27;102111.28;;;15.19;87.78
829;BME280;396;52.558;13.188;2022-09-21T10:11:57;102110.72;;;15.41;84.96
829;BME280;396;52.558;13.188;2022-09-21T10:14:26;102112.81;;;15.63;83.26
829;BME280;396;52.558;13.188;2022-09-21T10:16:55;102112.69;;;15.73;80.37
829;BME280;396;52.558;13.188;2022-09-21T10:19:25;102110.81;;;15.87;80.52
829;BME280;396;52.558;13.188;2022-09-21T10:21:55;102114.56;;;15.92;79.58
829;BME280;396;52.558;13.188;2022-09-21T10:24:24;102124.78;;;15.86;80.52
829;BME280;396;52.558;13.188;2022-09-21T10:26:54;102112.59;;;15.78;81.20
829;BME280;396;52.558;13.188;2022-09-21T10:29:30;102121.09;;;15.77;80.40
829;BME280;396;52.558;13.188;2022-09-21T10:31:59;102117.69;;;15.66;80.10
829;BME280;396;52.558;13.188;2022-09-21T10:34:27;102116.22;;;15.55;81.66
829;BME280;396;52.558;13.188;2022-09-21T10:36:55;102114.66;;;15.49;81.44
829;BME280;396;52.558;13.188;2022-09-21T10:39:25;102116.31;;;15.50;82.08
829;BME280;396;52.558;13.188;2022-09-21T10:42:02;102101.63;;;15.64;83.29
829;BME280;396;52.558;13.188;2022-09-21T10:44:37;102101.91;;;15.96;83.73
829;BME280;396;52.558;13.188;2022-09-21T10:47:15;102100.16;;;16.32;80.31
829;BME280;396;52.558;13.188;2022-09-21T10:49:44;102103.00;;;16.55;78.12
829;BME280;396;52.558;13.188;2022-09-21T10:52:12;102098.16;;;16.79;78.22
829;BME280;396;52.558;13.188;2022-09-21T10:54:40;102099.06;;;16.61;72.89
829;BME280;396;52.558;13.188;2022-09-21T10:57:14;102099.78;;;16.53;74.33
829;BME280;396;52.558;13.188;2022-09-21T10:59:42;102104.44;;;16.38;74.86
829;BME280;396;52.558;13.188;2022-09-21T11:02:24;102096.00;;;16.21;72.49
829;BME280;396;52.558;13.188;2022-09-21T11:04:58;102097.28;;;16.10;75.74
829;BME280;396;52.558;13.188;2022-09-21T11:07:29;102088.50;;;16.13;76.70
829;BME280;396;52.558;13.188;2022-09-21T11:10:03;102089.91;;;16.24;77.76
829;BME280;396;52.558;13.188;2022-09-21T11:12:46;102084.88;;;16.31;78.14
829;BME280;396;52.558;13.188;2022-09-21T11:15:20;102085.19;;;16.44;78.20
829;BME280;396;52.558;13.188;2022-09-21T11:17:52;102078.78;;;16.62;77.30
829;BME280;396;52.558;13.188;2022-09-21T11:20:25;102083.97;;;16.77;75.98
829;BME280;396;52.558;13.188;2022-09-21T11:22:59;102090.38;;;17.23;76.81
829;BME280;396;52.558;13.188;2022-09-21T11:25:34;102088.03;;;17.16;76.48
829;BME280;396;52.558;13.188;2022-09-21T11:28:10;102087.41;;;16.97;78.22
829;BME280;396;52.558;13.188;2022-09-21T11:30:49;102095.13;;;16.81;80.72
829;BME280;396;52.558;13.188;2022-09-21T11:33:30;102097.22;;;16.70;82.58
829;BME280;396;52.558;13.188;2022-09-21T11:36:08;102085.59;;;16.64;83.21
829;BME280;396;52.558;13.188;2022-09-21T11:38:43;102089.22;;;16.60;81.16
829;BME280;396;52.558;13.188;2022-09-21T11:41:27;102085.97;;;16.58;79.34
829;BME280;396;52.558;13.188;2022-09-21T11:44:11;102084.25;;;16.62;76.46
829;BME280;396;52.558;13.188;2022-09-21T11:46:44;102081.75;;;18.05;75.88
829;BME280;396;52.558;13.188;2022-09-21T11:49:35;102094.72;;;19.80;61.33
829;BME280;396;52.558;13.188;2022-09-21T11:52:19;102093.94;;;21.57;52.14
829;BME280;396;52.558;13.188;2022-09-21T11:54:59;102096.88;;;22.30;51.05
829;BME280;396;52.558;13.188;2022-09-21T11:57:35;102091.47;;;21.43;53.41
829;BME280;396;52.558;13.188;2022-09-21T12:00:09;102098.44;;;19.84;57.09
829;BME280;396;52.558;13.188;2022-09-21T12:05:55;102086.16;;;18.06;64.87
829;BME280;396;52.558;13.188;2022-09-21T12:08:41;102090.34;;;17.59;65.05
829;BME280;396;52.558;13.188;2022-09-21T12:11:18;102078.72;;;17.39;65.56
829;BME280;396;52.558;13.188;2022-09-21T12:13:53;102072.09;;;17.32;66.80
829;BME280;396;52.558;13.188;2022-09-21T12:16:31;102077.13;;;17.38;67.27
829;BME280;396;52.558;13.188;2022-09-21T12:19:07;102075.50;;;17.37;70.78
829;BME280;396;52.558;13.188;2022-09-21T12:21:37;102066.34;;;17.42;72.11
829;BME280;396;52.558;13.188;2022-09-21T12:24:13;102068.78;;;17.44;71.39
829;BME280;396;52.558;13.188;2022-09-21T12:26:43;102067.97;;;18.19;69.57
829;BME280;396;52.558;13.188;2022-09-21T12:29:15;102076.28;;;19.28;64.66
829;BME280;396;52.558;13.188;2022-09-21T12:31:56;102079.44;;;20.00;56.73
829;BME280;396;52.558;13.188;2022-09-21T12:34:26;102075.81;;;20.84;55.28
829;BME280;396;52.558;13.188;2022-09-21T12:36:59;102075.66;;;21.98;52.41
829;BME280;396;52.558;13.188;2022-09-21T12:39:36;102073.63;;;22.56;47.63
829;BME280;396;52.558;13.188;2022-09-21T12:42:10;102083.16;;;23.07;45.39
829;BME280;396;52.558;13.188;2022-09-21T12:44:43;102083.56;;;23.78;44.32
829;BME280;396;52.558;13.188;2022-09-21T12:47:27;102084.03;;;24.27;42.33
829;BME280;396;52.558;13.188;2022-09-21T12:50:00;102070.81;;;24.52;40.50
829;BME280;396;52.558;13.188;2022-09-21T12:52:27;102077.88;;;25.39;43.23
829;BME280;396;52.558;13.188;2022-09-21T12:55:03;102071.69;;;25.88;40.67
829;BME280;396;52.558;13.188;2022-09-21T12:57:45;102066.84;;;26.31;40.14
829;BME280;396;52.558;13.188;2022-09-21T13:00:15;102069.28;;;26.59;38.37
829;BME280;396;52.558;13.188;2022-09-21T13:02:47;102064.66;;;25.95;38.80
829;BME280;396;52.558;13.188;2022-09-21T13:05:22;102068.50;;;24.07;42.00
829;BME280;396;52.558;13.188;2022-09-21T13:08:02;102055.94;;;22.32;47.31
829;BME280;396;52.558;13.188;2022-09-21T13:10:37;102055.25;;;21.03;50.42
829;BME280;396;52.558;13.188;2022-09-21T13:15:49;102046.88;;;19.03;57.04
829;BME280;396;52.558;13.188;2022-09-21T13:18:21;102049.84;;;18.58;58.27
829;BME280;396;52.558;13.188;2022-09-21T13:20:49;102039.44;;;18.20;61.03
829;BME280;396;52.558;13.188;2022-09-21T13:23:22;102044.59;;;17.90;63.71
829;BME280;396;52.558;13.188;2022-09-21T13:25:59;102045.41;;;17.91;64.01
829;BME280;396;52.558;13.188;2022-09-21T13:29:01;102049.31;;;19.30;62.47
829;BME280;396;52.558;13.188;2022-09-21T13:31:38;102047.47;;;20.84;55.34
829;BME280;396;52.558;13.188;2022-09-21T13:34:20;102049.34;;;22.12;51.20
829;BME280;396;52.558;13.188;2022-09-21T13:46:44;102046.16;;;24.31;42.18
829;BME280;396;52.558;13.188;2022-09-21T13:49:24;102046.63;;;24.17;42.21
829;BME280;396;52.558;13.188;2022-09-21T13:51:55;102055.78;;;23.46;41.63
829;BME280;396;52.558;13.188;2022-09-21T13:54:25;102042.75;;;22.66;43.82
829;BME280;396;52.558;13.188;2022-09-21T13:57:04;102038.16;;;22.95;45.09